Time;durP1;ratioP1;P1;durP2;ratioP2;P2;SDS_P1;SDS_P2;PMS_P1;PMS_P2;Temp;Humidity;BMP_temperature;BMP_pressure;BME280_temperature;BME280_humidity;BME280_pressure;Samples;Min_cycle;Max_cycle;Signal;HPM_P1;HPM_P2
2021/10/26 00:02:05;;;;;;;11.63;6.35;;;;;;;;;;5053605;28;20047;-73
2021/10/26 00:04:31;;;;;;;17.85;7.22;;;;;;;;;;5054092;28;20048;-73
2021/10/26 00:06:57;;;;;;;12.68;6.88;;;;;;;;;;5054132;28;20017;-73
2021/10/26 00:09:23;;;;;;;12.98;5.85;;;;;;;;;;5053800;28;20033;-73
2021/10/26 00:11:50;;;;;;;13.43;6.03;;;;;;;;;;5054011;28;20474;-73
2021/10/26 00:14:16;;;;;;;11.50;6.65;;;;;;;;;;5053916;28;20060;-73
2021/10/26 00:16:42;;;;;;;13.05;5.78;;;;;;;;;;5053775;28;20029;-75
2021/10/26 00:19:08;;;;;;;13.52;6.93;;;;;;;;;;5053920;28;20029;-73
2021/10/26 00:21:35;;;;;;;14.23;7.93;;;;;;;;;;5053579;28;20511;-74
2021/10/26 00:24:01;;;;;;;16.05;7.25;;;;;;;;;;5053657;28;20033;-74
2021/10/26 00:26:27;;;;;;;15.45;8.75;;;;;;;;;;5053794;28;20378;-74
2021/10/26 00:28:54;;;;;;;10.60;6.82;;;;;;;;;;5053694;28;20025;-73
2021/10/26 00:31:20;;;;;;;15.63;8.77;;;;;;;;;;5052531;28;20063;-73
2021/10/26 00:33:46;;;;;;;16.70;8.65;;;;;;;;;;5053625;28;20050;-73
2021/10/26 00:36:13;;;;;;;16.15;7.93;;;;;;;;;;5053141;28;20020;-72
2021/10/26 00:38:39;;;;;;;13.25;7.32;;;;;;;;;;5051886;28;20717;-73
2021/10/26 00:41:06;;;;;;;14.60;6.82;;;;;;;;;;5053460;28;20020;-73
2021/10/26 00:43:33;;;;;;;13.57;6.88;;;;;;;;;;5053460;28;20028;-74
2021/10/26 00:45:59;;;;;;;13.68;7.50;;;;;;;;;;5053051;28;20484;-73
2021/10/26 00:48:25;;;;;;;11.15;6.25;;;;;;;;;;5053569;28;20033;-73
2021/10/26 00:50:52;;;;;;;13.85;6.63;;;;;;;;;;5053337;28;20017;-74
2021/10/26 00:53:18;;;;;;;17.60;6.70;;;;;;;;;;5052990;28;20032;-73
2021/10/26 00:55:47;;;;;;;11.45;5.72;;;;;;;;;;5053305;28;20385;-74
2021/10/26 00:58:13;;;;;;;9.38;4.93;;;;;;;;;;5052824;28;20032;-73
2021/10/26 01:00:39;;;;;;;10.43;4.35;;;;;;;;;;5053122;28;20064;-73
2021/10/26 01:03:05;;;;;;;10.98;4.95;;;;;;;;;;5053281;28;20037;-73
2021/10/26 01:05:32;;;;;;;13.88;7.10;;;;;;;;;;5051623;28;20052;-74
2021/10/26 01:07:58;;;;;;;15.18;7.00;;;;;;;;;;5053134;28;20025;-73
2021/10/26 01:10:24;;;;;;;12.98;7.88;;;;;;;;;;5053006;28;20031;-74
2021/10/26 01:12:51;;;;;;;15.60;8.38;;;;;;;;;;5052624;28;20025;-74
2021/10/26 01:15:17;;;;;;;12.27;7.50;;;;;;;;;;5053408;28;20029;-74
2021/10/26 01:17:44;;;;;;;15.63;7.32;;;;;;;;;;5053126;28;20096;-74
2021/10/26 01:20:11;;;;;;;14.85;7.60;;;;;;;;;;5051284;28;20481;-73
2021/10/26 01:22:40;;;;;;;15.73;6.13;;;;;;;;;;5052756;28;20432;-74
2021/10/26 01:25:10;;;;;;;13.30;5.22;;;;;;;;;;5052906;28;20099;-74
2021/10/26 01:27:39;;;;;;;14.38;6.93;;;;;;;;;;5052480;28;20025;-73
2021/10/26 01:30:06;;;;;;;14.77;6.00;;;;;;;;;;5052848;28;20049;-73
2021/10/26 01:32:33;;;;;;;15.80;7.47;;;;;;;;;;5053018;28;20477;-73
2021/10/26 01:34:59;;;;;;;16.33;7.22;;;;;;;;;;5052492;28;20056;-73
2021/10/26 01:37:25;;;;;;;15.25;6.70;;;;;;;;;;5052849;28;20028;-73
2021/10/26 01:39:51;;;;;;;13.02;6.80;;;;;;;;;;5052787;28;20025;-73
2021/10/26 01:42:17;;;;;;;12.23;5.35;;;;;;;;;;5052415;28;20106;-73
2021/10/26 01:44:44;;;;;;;11.13;6.38;;;;;;;;;;5056600;28;20048;-74
2021/10/26 01:47:10;;;;;;;12.48;6.53;;;;;;;;;;5055512;28;20109;-74
2021/10/26 01:49:36;;;;;;;10.30;5.53;;;;;;;;;;5056637;28;20478;-74
2021/10/26 01:52:03;;;;;;;11.02;4.78;;;;;;;;;;5056713;28;20032;-73
2021/10/26 01:54:36;;;;;;;11.10;5.07;;;;;;;;;;5056444;28;20028;-74
2021/10/26 01:57:02;;;;;;;10.18;4.50;;;;;;;;;;5057063;28;20032;-73
2021/10/26 01:59:28;;;;;;;9.15;4.63;;;;;;;;;;5056570;28;20025;-73
2021/10/26 02:01:54;;;;;;;9.05;4.93;;;;;;;;;;5055798;28;20036;-73
2021/10/26 02:04:21;;;;;;;9.07;5.00;;;;;;;;;;5056486;28;20021;-73
2021/10/26 02:06:47;;;;;;;11.48;5.90;;;;;;;;;;5056422;28;20394;-74
2021/10/26 02:09:13;;;;;;;11.02;5.35;;;;;;;;;;5056396;28;20045;-74
2021/10/26 02:11:39;;;;;;;13.65;6.07;;;;;;;;;;5056407;28;20075;-74
2021/10/26 02:14:06;;;;;;;13.75;5.72;;;;;;;;;;5056490;28;20033;-74
2021/10/26 02:16:32;;;;;;;14.75;6.50;;;;;;;;;;5056235;28;20028;-74
2021/10/26 02:18:59;;;;;;;21.98;9.27;;;;;;;;;;5056483;28;20041;-73
2021/10/26 02:21:25;;;;;;;14.98;6.80;;;;;;;;;;5055972;28;20131;-74
2021/10/26 02:23:51;;;;;;;17.95;9.05;;;;;;;;;;5055723;28;20491;-73
2021/10/26 02:26:17;;;;;;;16.65;8.00;;;;;;;;;;5056047;28;20094;-73
2021/10/26 02:28:44;;;;;;;21.45;8.25;;;;;;;;;;5055970;28;20029;-73
2021/10/26 02:31:10;;;;;;;17.75;8.63;;;;;;;;;;5055601;28;20013;-73
2021/10/26 02:33:37;;;;;;;14.25;6.50;;;;;;;;;;5055849;28;20052;-73
2021/10/26 02:36:04;;;;;;;14.55;6.25;;;;;;;;;;5055857;28;20032;-73
2021/10/26 02:38:30;;;;;;;12.93;6.93;;;;;;;;;;5055472;28;20053;-74
2021/10/26 02:40:57;;;;;;;23.73;9.60;;;;;;;;;;5055923;28;20433;-73
2021/10/26 02:43:23;;;;;;;19.63;8.77;;;;;;;;;;5055619;28;20029;-73
2021/10/26 02:45:49;;;;;;;17.42;8.05;;;;;;;;;;5055292;28;20060;-73
2021/10/26 02:48:15;;;;;;;14.40;6.72;;;;;;;;;;5056005;28;20033;-73
2021/10/26 02:50:41;;;;;;;15.65;6.15;;;;;;;;;;5055279;28;20044;-74
2021/10/26 02:53:07;;;;;;;14.23;7.10;;;;;;;;;;5054247;28;20112;-74
2021/10/26 02:55:34;;;;;;;16.75;6.93;;;;;;;;;;5054909;28;20032;-73
2021/10/26 02:58:00;;;;;;;11.88;5.90;;;;;;;;;;5055088;28;20469;-73
2021/10/26 03:00:26;;;;;;;12.18;5.18;;;;;;;;;;5055292;28;20419;-73
2021/10/26 03:02:52;;;;;;;10.07;5.20;;;;;;;;;;5055773;28;20056;-73
2021/10/26 03:05:18;;;;;;;10.07;5.35;;;;;;;;;;5054926;28;20025;-74
2021/10/26 03:07:46;;;;;;;10.35;5.20;;;;;;;;;;5055241;28;20047;-74
2021/10/26 03:10:13;;;;;;;10.45;5.65;;;;;;;;;;5055252;28;20075;-73
2021/10/26 03:12:39;;;;;;;10.82;5.97;;;;;;;;;;5054876;28;20522;-74
2021/10/26 03:15:07;;;;;;;13.82;7.07;;;;;;;;;;5055421;28;20025;-73
2021/10/26 03:17:33;;;;;;;13.00;6.78;;;;;;;;;;5055147;28;20485;-74
2021/10/26 03:20:00;;;;;;;12.95;7.53;;;;;;;;;;5054554;28;20025;-73
2021/10/26 03:22:26;;;;;;;14.68;8.57;;;;;;;;;;5054763;28;20049;-73
2021/10/26 03:24:54;;;;;;;11.38;5.20;;;;;;;;;;5055055;28;20022;-73
2021/10/26 03:27:20;;;;;;;9.52;5.03;;;;;;;;;;5054682;28;20118;-73
2021/10/26 03:29:47;;;;;;;12.15;5.47;;;;;;;;;;5055010;28;20071;-73
2021/10/26 03:32:13;;;;;;;11.52;6.22;;;;;;;;;;5054869;28;20489;-74
2021/10/26 03:34:39;;;;;;;11.48;6.28;;;;;;;;;;5054380;28;20029;-73
2021/10/26 03:37:06;;;;;;;10.23;5.28;;;;;;;;;;5053555;28;20094;-73
2021/10/26 03:39:33;;;;;;;11.57;4.75;;;;;;;;;;5054649;28;20500;-73
2021/10/26 03:41:59;;;;;;;8.88;4.60;;;;;;;;;;5054267;28;20041;-73
2021/10/26 03:44:26;;;;;;;10.77;5.65;;;;;;;;;;5054578;28;20518;-73
2021/10/26 03:46:52;;;;;;;10.02;4.72;;;;;;;;;;5054185;28;20021;-73
2021/10/26 03:49:18;;;;;;;10.00;5.25;;;;;;;;;;5053125;28;20036;-73
2021/10/26 03:51:44;;;;;;;9.50;4.75;;;;;;;;;;5054416;28;20531;-74
2021/10/26 03:54:11;;;;;;;7.97;4.43;;;;;;;;;;5053986;28;20031;-73
2021/10/26 03:56:37;;;;;;;12.73;5.50;;;;;;;;;;5054340;28;20021;-74
2021/10/26 03:59:09;;;;;;;12.73;6.35;;;;;;;;;;5053019;28;20109;-73
2021/10/26 04:01:36;;;;;;;13.57;7.03;;;;;;;;;;5053195;28;20377;-73
2021/10/26 04:04:02;;;;;;;11.45;5.63;;;;;;;;;;5054588;28;20416;-73
2021/10/26 04:06:30;;;;;;;12.43;6.28;;;;;;;;;;5053361;28;20491;-73
2021/10/26 04:09:06;;;;;;;11.52;6.47;;;;;;;;;;5053757;28;20032;-73
2021/10/26 04:11:40;;;;;;;13.10;5.95;;;;;;;;;;5054064;28;20104;-73
2021/10/26 04:14:06;;;;;;;14.27;6.32;;;;;;;;;;5054068;28;20060;-73
2021/10/26 04:16:33;;;;;;;11.68;6.43;;;;;;;;;;5052432;28;20025;-73
2021/10/26 04:18:59;;;;;;;12.65;7.40;;;;;;;;;;5054173;28;20036;-73
2021/10/26 04:21:26;;;;;;;18.08;9.95;;;;;;;;;;5053864;28;20045;-73
2021/10/26 04:23:52;;;;;;;18.77;11.23;;;;;;;;;;5053453;28;20576;-72
2021/10/26 04:26:19;;;;;;;18.25;9.60;;;;;;;;;;5053766;28;20053;-73
2021/10/26 04:28:45;;;;;;;15.13;8.57;;;;;;;;;;5053649;28;20040;-73
2021/10/26 04:31:12;;;;;;;20.00;11.00;;;;;;;;;;5053295;28;20075;-73
2021/10/26 04:33:39;;;;;;;21.95;11.80;;;;;;;;;;5053899;28;20103;-73
2021/10/26 04:36:05;;;;;;;41.85;24.75;;;;;;;;;;5052010;28;20032;-72
2021/10/26 04:38:32;;;;;;;30.77;20.30;;;;;;;;;;5053624;28;20096;-73
2021/10/26 04:40:58;;;;;;;30.58;17.55;;;;;;;;;;5053650;28;20032;-73
2021/10/26 04:43:25;;;;;;;29.88;15.48;;;;;;;;;;5053064;28;20036;-73
2021/10/26 04:45:53;;;;;;;21.52;12.38;;;;;;;;;;5053367;28;20441;-71
2021/10/26 04:48:19;;;;;;;24.23;10.95;;;;;;;;;;5053428;28;20024;-73
2021/10/26 04:50:46;;;;;;;29.10;15.52;;;;;;;;;;5053024;28;20021;-73
2021/10/26 04:53:12;;;;;;;25.40;12.95;;;;;;;;;;5053292;28;20028;-73
2021/10/26 04:55:38;;;;;;;20.92;12.65;;;;;;;;;;5053387;28;20090;-73
2021/10/26 04:58:05;;;;;;;19.90;10.88;;;;;;;;;;5053034;28;20026;-73
2021/10/26 05:00:31;;;;;;;20.73;10.82;;;;;;;;;;5053261;28;20100;-73
2021/10/26 05:02:57;;;;;;;17.48;10.05;;;;;;;;;;5051906;28;20033;-73
2021/10/26 05:05:23;;;;;;;17.70;9.20;;;;;;;;;;5052804;28;20509;-73
2021/10/26 05:07:50;;;;;;;16.83;9.07;;;;;;;;;;5053232;28;20047;-73
2021/10/26 05:10:16;;;;;;;19.38;9.43;;;;;;;;;;5053024;28;20103;-72
2021/10/26 05:12:43;;;;;;;22.55;12.07;;;;;;;;;;5052616;28;20139;-73
2021/10/26 05:15:09;;;;;;;19.63;9.85;;;;;;;;;;5052999;28;20025;-74
2021/10/26 05:17:38;;;;;;;25.70;13.05;;;;;;;;;;5052840;28;20021;-75
2021/10/26 05:20:05;;;;;;;33.28;16.80;;;;;;;;;;5052764;28;20014;-75
2021/10/26 05:22:32;;;;;;;22.88;13.65;;;;;;;;;;5051251;28;20052;-78
2021/10/26 05:24:58;;;;;;;23.85;13.18;;;;;;;;;;5051307;28;20093;-79
2021/10/26 05:27:25;;;;;;;26.13;13.82;;;;;;;;;;5050700;28;20059;-79
2021/10/26 05:29:54;;;;;;;23.55;13.15;;;;;;;;;;5051880;28;20098;-78
2021/10/26 05:32:20;;;;;;;26.77;14.05;;;;;;;;;;5050246;28;20029;-78
2021/10/26 05:34:47;;;;;;;29.48;13.40;;;;;;;;;;5052685;28;20041;-73
2021/10/26 05:37:13;;;;;;;24.02;11.57;;;;;;;;;;5052511;28;20492;-74
2021/10/26 05:39:47;;;;;;;22.20;12.15;;;;;;;;;;5048235;28;20462;-74
2021/10/26 05:42:13;;;;;;;24.70;10.82;;;;;;;;;;5043242;28;20056;-72
2021/10/26 05:44:39;;;;;;;15.13;9.07;;;;;;;;;;5049155;28;20071;-73
2021/10/26 05:47:06;;;;;;;16.65;9.18;;;;;;;;;;5051466;28;20033;-74
2021/10/26 05:49:32;;;;;;;23.48;13.82;;;;;;;;;;5047211;28;20100;-73
2021/10/26 05:51:59;;;;;;;20.77;11.23;;;;;;;;;;5050034;28;20021;-74
2021/10/26 05:54:26;;;;;;;26.08;14.88;;;;;;;;;;5050022;28;20532;-75
2021/10/26 05:56:52;;;;;;;28.58;16.83;;;;;;;;;;5049314;28;20025;-73
2021/10/26 05:59:18;;;;;;;26.73;14.60;;;;;;;;;;5048935;28;20105;-73
2021/10/26 06:01:44;;;;;;;26.67;14.38;;;;;;;;;;5048442;28;20465;-73
2021/10/26 06:04:11;;;;;;;30.70;16.20;;;;;;;;;;5050356;28;20025;-73
2021/10/26 06:06:38;;;;;;;33.55;15.75;;;;;;;;;;5049661;28;20066;-72
2021/10/26 06:09:05;;;;;;;30.58;15.85;;;;;;;;;;5050590;28;20025;-72
2021/10/26 06:11:32;;;;;;;36.50;17.48;;;;;;;;;;5050287;28;20028;-74
2021/10/26 06:14:03;;;;;;;29.20;15.77;;;;;;;;;;5051078;28;20037;-73
2021/10/26 06:16:36;;;;;;;25.70;13.82;;;;;;;;;;5051524;28;20017;-74
2021/10/26 06:19:03;;;;;;;24.48;14.43;;;;;;;;;;5035970;28;20435;-73
2021/10/26 06:21:29;;;;;;;29.45;16.17;;;;;;;;;;5042753;28;20041;-74
2021/10/26 06:23:57;;;;;;;34.28;17.77;;;;;;;;;;5050429;28;20100;-71
2021/10/26 06:26:23;;;;;;;21.75;11.73;;;;;;;;;;5044802;28;20043;-70
2021/10/26 06:28:49;;;;;;;27.40;13.13;;;;;;;;;;5044177;28;20484;-70
2021/10/26 06:31:16;;;;;;;33.60;19.45;;;;;;;;;;5052357;28;20111;-67
2021/10/26 06:33:42;;;;;;;38.25;20.77;;;;;;;;;;5053200;28;20143;-67
2021/10/26 06:36:08;;;;;;;48.05;25.30;;;;;;;;;;5054118;28;20426;-66
2021/10/26 06:38:34;;;;;;;50.42;25.92;;;;;;;;;;5054430;28;20024;-68
2021/10/26 06:41:00;;;;;;;33.10;17.85;;;;;;;;;;5054873;28;20080;-69
2021/10/26 06:43:27;;;;;;;29.27;17.88;;;;;;;;;;5054583;28;20039;-66
2021/10/26 06:45:53;;;;;;;36.05;19.13;;;;;;;;;;5055340;28;20025;-66
2021/10/26 06:48:20;;;;;;;30.63;18.08;;;;;;;;;;5053627;28;20056;-66
2021/10/26 06:50:46;;;;;;;25.92;15.05;;;;;;;;;;5054955;28;20096;-67
2021/10/26 06:53:13;;;;;;;25.08;14.07;;;;;;;;;;5055044;28;20024;-66
2021/10/26 06:55:39;;;;;;;25.95;14.32;;;;;;;;;;5054932;28;20104;-68
2021/10/26 06:58:05;;;;;;;26.42;14.52;;;;;;;;;;5053697;28;20071;-67
2021/10/26 07:00:31;;;;;;;22.50;14.23;;;;;;;;;;5053430;28;20458;-68
2021/10/26 07:03:02;;;;;;;34.05;20.63;;;;;;;;;;5052740;28;20070;-70
2021/10/26 07:05:28;;;;;;;28.40;16.92;;;;;;;;;;5051653;28;20063;-65
2021/10/26 07:07:54;;;;;;;30.10;18.17;;;;;;;;;;5054886;28;20029;-67
2021/10/26 07:10:21;;;;;;;30.10;17.05;;;;;;;;;;5052888;28;20488;-67
2021/10/26 07:12:48;;;;;;;26.23;16.10;;;;;;;;;;5052906;28;20104;-67
2021/10/26 07:15:17;;;;;;;40.53;25.00;;;;;;;;;;5053095;28;20021;-66
2021/10/26 07:17:43;;;;;;;49.25;30.50;;;;;;;;;;5051436;28;20111;-69
2021/10/26 07:20:11;;;;;;;25.17;16.27;;;;;;;;;;5051948;28;20511;-69
2021/10/26 07:22:38;;;;;;;28.42;15.00;;;;;;;;;;5050749;28;20049;-67
2021/10/26 07:25:08;;;;;;;26.13;14.25;;;;;;;;;;5050876;28;20496;-66
2021/10/26 07:27:35;;;;;;;29.48;17.35;;;;;;;;;;5052033;28;20024;-66
2021/10/26 07:30:02;;;;;;;13.50;8.95;;;;;;;;;;5052283;28;20429;-67
2021/10/26 07:32:28;;;;;;;15.95;8.65;;;;;;;;;;5051682;28;20025;-66
2021/10/26 07:34:54;;;;;;;21.45;13.48;;;;;;;;;;5052452;28;20436;-67
2021/10/26 07:37:24;;;;;;;16.85;9.13;;;;;;;;;;5053176;28;20475;-66
2021/10/26 07:39:52;;;;;;;15.45;8.10;;;;;;;;;;5053573;28;20028;-69
2021/10/26 07:42:19;;;;;;;15.43;8.27;;;;;;;;;;5051898;28;20017;-68
2021/10/26 07:44:46;;;;;;;13.40;8.27;;;;;;;;;;5051662;28;20033;-66
2021/10/26 07:47:15;;;;;;;20.15;8.43;;;;;;;;;;5051817;28;20020;-67
2021/10/26 07:49:42;;;;;;;18.58;8.43;;;;;;;;;;5053032;28;20025;-69
2021/10/26 07:52:08;;;;;;;28.33;15.07;;;;;;;;;;5052252;28;20059;-68
2021/10/26 07:54:35;;;;;;;17.95;9.05;;;;;;;;;;5050773;28;20468;-66
2021/10/26 07:57:04;;;;;;;21.02;10.63;;;;;;;;;;5051321;28;20107;-68
2021/10/26 07:59:30;;;;;;;28.60;15.18;;;;;;;;;;5053898;28;20481;-71
2021/10/26 08:01:56;;;;;;;20.50;10.70;;;;;;;;;;5053874;28;20049;-72
2021/10/26 08:04:23;;;;;;;16.25;8.35;;;;;;;;;;5052384;28;20534;-70
2021/10/26 08:06:49;;;;;;;19.02;10.57;;;;;;;;;;5050290;28;20056;-70
2021/10/26 08:09:16;;;;;;;11.35;7.55;;;;;;;;;;5049083;28;20519;-71
2021/10/26 08:11:42;;;;;;;10.48;5.82;;;;;;;;;;5050264;28;20105;-69
2021/10/26 08:14:09;;;;;;;19.95;9.35;;;;;;;;;;5052429;28;20032;-70
2021/10/26 08:16:35;;;;;;;16.35;7.60;;;;;;;;;;5052155;28;20555;-69
2021/10/26 08:19:02;;;;;;;15.13;7.15;;;;;;;;;;5052053;28;20032;-69
2021/10/26 08:21:28;;;;;;;11.10;6.13;;;;;;;;;;5049869;28;20497;-72
2021/10/26 08:23:55;;;;;;;12.55;5.50;;;;;;;;;;5049938;28;20060;-70
2021/10/26 08:26:25;;;;;;;44.10;20.77;;;;;;;;;;5048434;28;20021;-70
2021/10/26 08:28:57;;;;;;;14.27;8.38;;;;;;;;;;5050414;28;20108;-71
2021/10/26 08:31:28;;;;;;;13.85;8.30;;;;;;;;;;5050495;28;20605;-69
2021/10/26 08:37:25;;;;;;;15.57;6.50;;;;;;;;;;5129625;27;20540;-71
2021/10/26 08:39:51;;;;;;;14.90;6.70;;;;;;;;;;5104537;28;20028;-69
2021/10/26 08:42:18;;;;;;;12.73;6.10;;;;;;;;;;5071819;28;20020;-69
2021/10/26 08:44:45;;;;;;;13.10;7.15;;;;;;;;;;5089885;28;20373;-68
2021/10/26 08:48:40;;;;;;;11.93;6.28;;;;;;;;;;5110180;27;20504;-70
2021/10/26 08:51:06;;;;;;;25.65;13.60;;;;;;;;;;5103395;28;20032;-70
2021/10/26 08:53:32;;;;;;;36.78;16.67;;;;;;;;;;5108224;28;20080;-69
2021/10/26 08:56:02;;;;;;;29.95;15.05;;;;;;;;;;5109218;28;20445;-69
2021/10/26 08:58:29;;;;;;;19.15;11.15;;;;;;;;;;5115467;28;20099;-70
2021/10/26 09:00:59;;;;;;;14.27;7.32;;;;;;;;;;5108173;28;20472;-69
2021/10/26 09:03:44;;;;;;;15.00;6.78;;;;;;;;;;5109225;27;20544;-70
2021/10/26 09:06:11;;;;;;;10.80;5.15;;;;;;;;;;5109560;28;20042;-70
2021/10/26 09:08:39;;;;;;;7.38;3.70;;;;;;;;;;5110369;28;20024;-70
2021/10/26 09:16:42;;;;;;;10.05;5.15;;;;;;;;;;5104770;28;20522;-71
2021/10/26 09:19:13;;;;;;;21.30;10.50;;;;;;;;;;5111152;28;20459;-71
2021/10/26 09:21:40;;;;;;;17.50;7.88;;;;;;;;;;5119202;28;20028;-71
2021/10/26 09:24:08;;;;;;;20.17;11.02;;;;;;;;;;5100105;28;20053;-69
2021/10/26 09:26:48;;;;;;;23.02;11.80;;;;;;;;;;5103201;28;20480;-71
2021/10/26 09:31:07;;;;;;;15.38;7.10;;;;;;;;;;5088389;27;20498;-72
2021/10/26 09:33:35;;;;;;;18.23;9.40;;;;;;;;;;5087211;28;20024;-70
2021/10/26 09:37:34;;;;;;;34.53;16.27;;;;;;;;;;5068450;28;20395;-71
2021/10/26 09:40:36;;;;;;;17.67;9.10;;;;;;;;;;5108021;27;20485;-71
2021/10/26 09:43:06;;;;;;;14.98;6.40;;;;;;;;;;5108635;28;20050;-69
2021/10/26 09:45:32;;;;;;;12.05;5.80;;;;;;;;;;5109475;28;20019;-70
2021/10/26 09:49:25;;;;;;;12.93;6.00;;;;;;;;;;5110961;27;20466;-71
2021/10/26 09:52:06;;;;;;;7.05;3.05;;;;;;;;;;5108694;28;20047;-72
2021/10/26 09:54:32;;;;;;;12.50;4.55;;;;;;;;;;5109898;28;20051;-72
2021/10/26 09:58:00;;;;;;;9.40;4.07;;;;;;;;;;5108775;27;20434;-69
2021/10/26 10:00:28;;;;;;;9.38;3.30;;;;;;;;;;5106064;28;20030;-70
2021/10/26 10:03:29;;;;;;;14.43;8.90;;;;;;;;;;5109881;27;20473;-71
2021/10/26 10:05:59;;;;;;;13.27;7.93;;;;;;;;;;5109292;28;20032;-71
2021/10/26 10:08:47;;;;;;;5.18;2.47;;;;;;;;;;5108668;27;20385;-71
2021/10/26 10:13:25;;;;;;;5.55;2.70;;;;;;;;;;5108804;27;20123;-71
2021/10/26 10:15:51;;;;;;;7.68;3.35;;;;;;;;;;5107924;28;20384;-71
2021/10/26 10:18:19;;;;;;;8.45;2.55;;;;;;;;;;5107795;28;20028;-73
2021/10/26 10:30:27;;;;;;;11.27;5.45;;;;;;;;;;5105964;27;20396;-74
2021/10/26 10:32:53;;;;;;;7.57;3.40;;;;;;;;;;5088544;28;20545;-72
2021/10/26 10:35:19;;;;;;;12.07;6.28;;;;;;;;;;5085984;28;20028;-71
2021/10/26 10:37:51;;;;;;;15.85;8.05;;;;;;;;;;5089889;28;20020;-73
2021/10/26 10:40:22;;;;;;;8.50;3.70;;;;;;;;;;5089012;28;20038;-73
2021/10/26 10:42:51;;;;;;;6.35;3.13;;;;;;;;;;5100518;28;20651;-73
2021/10/26 10:45:24;;;;;;;10.27;4.00;;;;;;;;;;5108568;28;20053;-74
2021/10/26 10:49:52;;;;;;;6.85;2.50;;;;;;;;;;5109526;27;20396;-73
2021/10/26 10:52:23;;;;;;;6.82;3.00;;;;;;;;;;5109929;28;20064;-75
2021/10/26 10:56:17;;;;;;;7.97;2.25;;;;;;;;;;5109845;27;20931;-73
2021/10/26 10:59:38;;;;;;;10.30;5.60;;;;;;;;;;5130975;27;20383;-73
2021/10/26 11:02:30;;;;;;;9.02;4.45;;;;;;;;;;5106504;28;20480;-71
2021/10/26 11:05:38;;;;;;;6.60;3.13;;;;;;;;;;5110515;27;20804;-72
2021/10/26 11:08:14;;;;;;;7.63;2.45;;;;;;;;;;5105146;28;20146;-73
2021/10/26 11:10:49;;;;;;;5.93;3.17;;;;;;;;;;5108319;28;20016;-71
2021/10/26 11:16:08;;;;;;;6.63;2.25;;;;;;;;;;5110191;27;20461;-72
2021/10/26 11:21:28;;;;;;;6.75;2.35;;;;;;;;;;5109772;27;20404;-74
2021/10/26 11:23:58;;;;;;;7.32;2.50;;;;;;;;;;5104953;28;20032;-74
2021/10/26 11:28:27;;;;;;;8.10;2.55;;;;;;;;;;5108964;27;20462;-73
2021/10/26 11:30:55;;;;;;;5.82;2.05;;;;;;;;;;5110691;28;20476;-74
2021/10/26 11:35:15;;;;;;;8.05;3.00;;;;;;;;;;5104435;27;20458;-73
2021/10/26 11:37:42;;;;;;;7.88;2.90;;;;;;;;;;5105269;28;20028;-73
2021/10/26 11:40:08;;;;;;;10.77;4.97;;;;;;;;;;5102310;28;20028;-74
2021/10/26 11:43:47;;;;;;;5.78;2.35;;;;;;;;;;5154667;27;20597;-74
2021/10/26 11:46:20;;;;;;;9.05;4.10;;;;;;;;;;5149756;27;20540;-73
2021/10/26 11:48:51;;;;;;;15.30;6.15;;;;;;;;;;5148781;27;20015;-72
2021/10/26 11:51:36;;;;;;;7.40;3.53;;;;;;;;;;5132651;27;20123;-73
2021/10/26 11:54:19;;;;;;;6.82;3.40;;;;;;;;;;5150836;27;20021;-73
2021/10/26 11:56:56;;;;;;;12.68;4.38;;;;;;;;;;5140913;27;20019;-71
2021/10/26 12:00:02;;;;;;;10.02;5.00;;;;;;;;;;5088820;27;20451;-72
2021/10/26 12:03:18;;;;;;;9.00;3.35;;;;;;;;;;5109090;27;20462;-76
2021/10/26 12:05:54;;;;;;;12.15;6.60;;;;;;;;;;5109790;28;20023;-72
2021/10/26 12:08:26;;;;;;;22.67;12.98;;;;;;;;;;5109721;28;20028;-75
2021/10/26 12:11:04;;;;;;;10.23;4.32;;;;;;;;;;5108463;28;20042;-73
2021/10/26 12:13:30;;;;;;;28.60;14.20;;;;;;;;;;5107363;28;20039;-73
2021/10/26 12:15:58;;;;;;;8.13;4.00;;;;;;;;;;5108428;28;20056;-72
2021/10/26 12:18:33;;;;;;;9.85;5.20;;;;;;;;;;5110071;28;20028;-76
2021/10/26 12:21:03;;;;;;;13.43;5.95;;;;;;;;;;5107313;28;20019;-75
2021/10/26 12:23:30;;;;;;;10.63;5.57;;;;;;;;;;5109556;28;20108;-77
2021/10/26 12:25:58;;;;;;;5.90;2.50;;;;;;;;;;5104418;28;20662;-75
2021/10/26 12:28:24;;;;;;;13.02;6.95;;;;;;;;;;5105813;28;20051;-75
2021/10/26 12:30:51;;;;;;;10.00;3.60;;;;;;;;;;5106777;28;20019;-74
2021/10/26 12:33:25;;;;;;;7.03;3.03;;;;;;;;;;5107187;28;20016;-72
2021/10/26 12:36:07;;;;;;;16.40;7.65;;;;;;;;;;5106849;28;20023;-69
2021/10/26 12:38:36;;;;;;;11.15;5.88;;;;;;;;;;5109169;28;20069;-70
2021/10/26 12:41:16;;;;;;;16.13;7.72;;;;;;;;;;5109478;28;20020;-69
2021/10/26 12:43:47;;;;;;;26.35;15.35;;;;;;;;;;5104199;28;20032;-70
2021/10/26 12:48:09;;;;;;;10.95;5.55;;;;;;;;;;5108585;27;20113;-70
2021/10/26 12:50:41;;;;;;;12.40;5.28;;;;;;;;;;5108244;28;20034;-70
2021/10/26 12:53:30;;;;;;;5.70;2.90;;;;;;;;;;5095680;28;20020;-70
2021/10/26 12:55:57;;;;;;;7.38;3.03;;;;;;;;;;5097669;28;20244;-69
2021/10/26 12:58:46;;;;;;;7.47;3.17;;;;;;;;;;5109514;27;20450;-72
2021/10/26 13:01:18;;;;;;;7.35;3.00;;;;;;;;;;5109908;28;20024;-69
2021/10/26 13:04:15;;;;;;;6.35;3.47;;;;;;;;;;5110143;28;20034;-70
2021/10/26 13:07:27;;;;;;;9.85;4.40;;;;;;;;;;5130501;27;20760;-70
2021/10/26 13:10:27;;;;;;;20.48;9.43;;;;;;;;;;5107449;27;20388;-71
2021/10/26 13:13:06;;;;;;;7.82;2.83;;;;;;;;;;5109471;28;20031;-70
2021/10/26 13:15:34;;;;;;;7.60;3.30;;;;;;;;;;5110253;28;20029;-72
2021/10/26 13:20:13;;;;;;;6.57;2.92;;;;;;;;;;5067413;28;20963;-71
2021/10/26 13:22:51;;;;;;;9.73;4.90;;;;;;;;;;5038384;28;20519;-71
2021/10/26 13:25:17;;;;;;;4.72;2.20;;;;;;;;;;5048475;28;20072;-71
2021/10/26 13:27:45;;;;;;;8.43;3.97;;;;;;;;;;5050115;28;20059;-71
2021/10/26 13:30:12;;;;;;;12.60;6.63;;;;;;;;;;5048403;28;20026;-71
2021/10/26 13:32:39;;;;;;;19.42;7.95;;;;;;;;;;5048798;28;20025;-71
2021/10/26 13:35:05;;;;;;;11.98;5.07;;;;;;;;;;5050332;28;20410;-71
2021/10/26 13:37:31;;;;;;;7.22;3.13;;;;;;;;;;5050097;28;20428;-72
2021/10/26 13:39:57;;;;;;;14.55;6.38;;;;;;;;;;5049670;28;20033;-69
2021/10/26 13:42:42;;;;;;;12.77;5.35;;;;;;;;;;5110903;27;20908;-71
2021/10/26 13:45:08;;;;;;;10.80;3.60;;;;;;;;;;5110615;28;20024;-70
2021/10/26 13:47:44;;;;;;;14.38;6.95;;;;;;;;;;5110975;28;20020;-72
2021/10/26 13:50:11;;;;;;;17.92;8.77;;;;;;;;;;5110920;28;20020;-71
2021/10/26 13:52:38;;;;;;;15.50;8.60;;;;;;;;;;5110264;28;20022;-72
2021/10/26 13:55:04;;;;;;;13.25;7.10;;;;;;;;;;5110732;28;20020;-70
2021/10/26 13:57:31;;;;;;;16.20;9.77;;;;;;;;;;5110945;28;20024;-70
2021/10/26 13:59:57;;;;;;;14.13;6.50;;;;;;;;;;5109080;28;20024;-71
2021/10/26 14:02:23;;;;;;;12.40;6.43;;;;;;;;;;5110090;28;20035;-71
2021/10/26 14:04:50;;;;;;;17.38;8.43;;;;;;;;;;5110739;28;20496;-71
2021/10/26 14:07:16;;;;;;;13.07;6.35;;;;;;;;;;5110258;28;20032;-70
2021/10/26 14:09:42;;;;;;;10.50;6.20;;;;;;;;;;5110523;28;20031;-72
2021/10/26 14:12:09;;;;;;;10.88;5.78;;;;;;;;;;5110021;28;20488;-72
2021/10/26 14:14:35;;;;;;;12.48;6.68;;;;;;;;;;5109832;28;20051;-70
2021/10/26 14:17:01;;;;;;;11.60;6.72;;;;;;;;;;5110153;28;20024;-70
2021/10/26 14:19:27;;;;;;;8.00;3.65;;;;;;;;;;5110171;28;20024;-70
2021/10/26 14:21:53;;;;;;;9.60;4.32;;;;;;;;;;5109511;28;20077;-69
2021/10/26 14:24:20;;;;;;;7.43;3.60;;;;;;;;;;5109895;28;20024;-70
2021/10/26 14:26:46;;;;;;;9.07;3.65;;;;;;;;;;5109944;28;20116;-70
2021/10/26 14:29:13;;;;;;;9.32;4.80;;;;;;;;;;5109543;28;20035;-70
2021/10/26 14:31:39;;;;;;;10.70;5.82;;;;;;;;;;5109937;28;20430;-70
2021/10/26 14:34:06;;;;;;;11.70;5.90;;;;;;;;;;5109432;28;20020;-69
2021/10/26 14:37:44;;;;;;;8.52;3.88;;;;;;;;;;5111036;27;20393;-70
2021/10/26 14:56:07;;;;;;;13.82;7.75;;;;;;;;;;5100088;28;20043;-70
2021/10/26 14:58:38;;;;;;;14.70;8.02;;;;;;;;;;5099258;28;20019;-70
2021/10/26 15:01:08;;;;;;;9.23;4.78;;;;;;;;;;5107613;28;20448;-69
2021/10/26 15:03:38;;;;;;;15.73;7.18;;;;;;;;;;5109916;28;20032;-70
2021/10/26 15:06:42;;;;;;;11.90;5.95;;;;;;;;;;5111112;27;20450;-70
2021/10/26 15:09:23;;;;;;;14.25;7.90;;;;;;;;;;5110679;28;20111;-71
2021/10/26 15:11:57;;;;;;;15.63;8.25;;;;;;;;;;5111166;28;20028;-72
2021/10/26 15:14:24;;;;;;;15.95;8.95;;;;;;;;;;5110896;28;20044;-71
2021/10/26 15:17:56;;;;;;;18.65;10.90;;;;;;;;;;5110727;27;20450;-72
2021/10/26 15:20:23;;;;;;;26.15;13.95;;;;;;;;;;5098334;28;20493;-72
2021/10/26 15:23:00;;;;;;;27.92;15.63;;;;;;;;;;5090671;28;20028;-69
2021/10/26 15:25:54;;;;;;;46.35;23.35;;;;;;;;;;5094421;28;20016;-72
2021/10/26 15:33:50;;;;;;;39.72;23.77;;;;;;;;;;5110889;28;20387;-70
2021/10/26 15:39:28;;;;;;;138.93;78.72;;;;;;;;;;5110580;27;20392;-71
2021/10/26 15:41:55;;;;;;;36.08;21.15;;;;;;;;;;5109979;28;20023;-69
2021/10/26 15:44:42;;;;;;;30.75;17.98;;;;;;;;;;5110303;27;20454;-70
2021/10/26 15:49:08;;;;;;;17.85;10.32;;;;;;;;;;5111273;27;20396;-70
2021/10/26 15:51:34;;;;;;;22.55;12.07;;;;;;;;;;5110531;28;20019;-72
2021/10/26 15:55:23;;;;;;;24.02;12.73;;;;;;;;;;5110975;27;20392;-69
2021/10/26 15:58:00;;;;;;;22.92;13.55;;;;;;;;;;5110069;27;20113;-71